首页
METAR-TAF:

METAR-TAF

机场 :

科隆/波恩機場

科隆, 德国

纬度: 50-52N, 经度: 007-10E, 海拔: 91米

当前天气观测

该预报发布于42分钟前的17:20 UTC
风速3节,风向,在东北东南之间变化
温度 3°C
湿度 100%
气压 1018 hPa
能见度10公里或以上
散云层高于3000英尺
多云层高于4800英尺

METAR: EDDK 191720Z 09003KT 050V130 9999 SCT030 BKN048 03/03 Q1018 NOSIG

时间: 19:02 (18:02 UTC)

预报

该预报发布于1小时和2分钟前的17:00 UTC
预报有效从19日的 18点(UTC)到 20日的 24点(UTC)
风速2节,风向多变
能见度10公里或以上
散云层高于3000英尺
短暂存在
从 20日的 01点(UTC)到 20日的 10点(UTC)
能見度: 2500
轻雾
几率 30% :
短暂存在
从 20日的 01点(UTC)到 20日的 10点(UTC)
能見度: 1400
多云层高于800英尺
轻雾
成为
从 20日的 07点(UTC)到 20日的 10点(UTC)
风速5节,风向东转东南

TAF: EDDK 191700Z 1918/2024 VRB02KT 9999 SCT030 TEMPO 2001/2010 2500 BR PROB30 TEMPO 2001/2010 1400 BR BKN008 BECMG 2007/2010 11005KT

超过4000个机场的气象观测和天气预报(METAR&TAF报告)。

可查询的气象台以黄色和红色小点在地图上表示。

将鼠标移到小点上方,可查看气象台名称。

然后点击查看天气观测和预报。

如需切换地图:点击带黑十字的绿色按钮放大地图;点击带横线的绿色按钮缩小地图;或者点击绿色箭头查看邻近地区的地图。


METAR-TAF: